sensor_id;sensor_type;location;lat;lon;timestamp;P1;durP1;ratioP1;P2;durP2;ratioP2
49978;SDS011;35869;50.990;6.962;2023-05-02T00:03:57;32.83;;;26.25;;
49978;SDS011;35869;50.990;6.962;2023-05-02T00:08:57;30.92;;;23.63;;
49978;SDS011;35869;50.990;6.962;2023-05-02T00:13:58;33.80;;;25.10;;
49978;SDS011;35869;50.990;6.962;2023-05-02T00:18:58;30.80;;;25.17;;
49978;SDS011;35869;50.990;6.962;2023-05-02T00:23:58;34.50;;;24.95;;
49978;SDS011;35869;50.990;6.962;2023-05-02T00:28:58;38.03;;;26.98;;
49978;SDS011;35869;50.990;6.962;2023-05-02T00:33:58;36.72;;;26.10;;
49978;SDS011;35869;50.990;6.962;2023-05-02T00:38:59;35.85;;;26.05;;
49978;SDS011;35869;50.990;6.962;2023-05-02T00:43:59;37.28;;;26.40;;
49978;SDS011;35869;50.990;6.962;2023-05-02T00:48:59;35.60;;;24.08;;
49978;SDS011;35869;50.990;6.962;2023-05-02T00:54:00;37.13;;;25.23;;
49978;SDS011;35869;50.990;6.962;2023-05-02T00:59:00;43.03;;;25.67;;
49978;SDS011;35869;50.990;6.962;2023-05-02T01:04:13;39.10;;;26.27;;
49978;SDS011;35869;50.990;6.962;2023-05-02T01:14:34;43.53;;;26.33;;
49978;SDS011;35869;50.990;6.962;2023-05-02T01:19:41;40.65;;;27.65;;
49978;SDS011;35869;50.990;6.962;2023-05-02T01:30:23;40.78;;;25.98;;
49978;SDS011;35869;50.990;6.962;2023-05-02T01:35:26;41.20;;;27.33;;
49978;SDS011;35869;50.990;6.962;2023-05-02T01:40:29;43.72;;;28.25;;
49978;SDS011;35869;50.990;6.962;2023-05-02T01:45:30;42.03;;;30.75;;
49978;SDS011;35869;50.990;6.962;2023-05-02T01:50:34;40.75;;;28.48;;
49978;SDS011;35869;50.990;6.962;2023-05-02T01:55:38;50.17;;;32.88;;
49978;SDS011;35869;50.990;6.962;2023-05-02T02:00:42;45.35;;;29.55;;
49978;SDS011;35869;50.990;6.962;2023-05-02T02:05:44;46.42;;;30.52;;
49978;SDS011;35869;50.990;6.962;2023-05-02T02:10:49;45.15;;;29.65;;
49978;SDS011;35869;50.990;6.962;2023-05-02T02:15:58;43.75;;;30.48;;
49978;SDS011;35869;50.990;6.962;2023-05-02T02:20:59;49.25;;;31.27;;
49978;SDS011;35869;50.990;6.962;2023-05-02T02:25:59;45.50;;;30.23;;
49978;SDS011;35869;50.990;6.962;2023-05-02T02:31:01;49.83;;;32.13;;
49978;SDS011;35869;50.990;6.962;2023-05-02T02:36:11;46.80;;;31.10;;
49978;SDS011;35869;50.990;6.962;2023-05-02T02:41:18;49.90;;;31.48;;
49978;SDS011;35869;50.990;6.962;2023-05-02T02:51:37;49.78;;;31.17;;
49978;SDS011;35869;50.990;6.962;2023-05-02T02:56:44;45.78;;;27.75;;
49978;SDS011;35869;50.990;6.962;2023-05-02T03:01:47;46.95;;;28.85;;
49978;SDS011;35869;50.990;6.962;2023-05-02T03:06:58;45.00;;;27.70;;
49978;SDS011;35869;50.990;6.962;2023-05-02T03:11:59;46.65;;;28.83;;
49978;SDS011;35869;50.990;6.962;2023-05-02T03:16:59;46.80;;;27.85;;
49978;SDS011;35869;50.990;6.962;2023-05-02T03:21:59;46.53;;;29.75;;
49978;SDS011;35869;50.990;6.962;2023-05-02T03:26:59;52.25;;;31.80;;
49978;SDS011;35869;50.990;6.962;2023-05-02T03:32:00;49.13;;;28.20;;
49978;SDS011;35869;50.990;6.962;2023-05-02T03:37:00;45.58;;;26.50;;
49978;SDS011;35869;50.990;6.962;2023-05-02T03:42:00;49.53;;;28.77;;
49978;SDS011;35869;50.990;6.962;2023-05-02T03:47:00;48.10;;;27.23;;
49978;SDS011;35869;50.990;6.962;2023-05-02T03:52:00;45.13;;;26.05;;
49978;SDS011;35869;50.990;6.962;2023-05-02T03:57:01;42.58;;;26.67;;
49978;SDS011;35869;50.990;6.962;2023-05-02T04:02:01;44.67;;;27.52;;
49978;SDS011;35869;50.990;6.962;2023-05-02T04:07:01;45.42;;;27.98;;
49978;SDS011;35869;50.990;6.962;2023-05-02T04:12:02;39.80;;;26.13;;
49978;SDS011;35869;50.990;6.962;2023-05-02T04:17:02;39.50;;;24.77;;
49978;SDS011;35869;50.990;6.962;2023-05-02T04:22:02;41.78;;;25.05;;
49978;SDS011;35869;50.990;6.962;2023-05-02T04:27:02;40.10;;;24.33;;
49978;SDS011;35869;50.990;6.962;2023-05-02T04:32:03;43.50;;;25.40;;
49978;SDS011;35869;50.990;6.962;2023-05-02T04:37:03;43.07;;;25.53;;
49978;SDS011;35869;50.990;6.962;2023-05-02T04:42:03;40.40;;;24.50;;
49978;SDS011;35869;50.990;6.962;2023-05-02T04:47:03;37.58;;;22.92;;
49978;SDS011;35869;50.990;6.962;2023-05-02T04:52:04;38.22;;;23.15;;
49978;SDS011;35869;50.990;6.962;2023-05-02T04:57:04;37.88;;;23.80;;
49978;SDS011;35869;50.990;6.962;2023-05-02T05:02:06;43.83;;;25.55;;
49978;SDS011;35869;50.990;6.962;2023-05-02T05:13:06;36.20;;;22.63;;
49978;SDS011;35869;50.990;6.962;2023-05-02T05:18:06;38.80;;;23.38;;
49978;SDS011;35869;50.990;6.962;2023-05-02T05:23:06;34.45;;;22.05;;
49978;SDS011;35869;50.990;6.962;2023-05-02T05:28:06;44.72;;;22.52;;
49978;SDS011;35869;50.990;6.962;2023-05-02T05:33:06;41.30;;;22.55;;
49978;SDS011;35869;50.990;6.962;2023-05-02T05:38:07;34.97;;;21.17;;
49978;SDS011;35869;50.990;6.962;2023-05-02T05:43:07;41.55;;;21.85;;
49978;SDS011;35869;50.990;6.962;2023-05-02T05:48:07;38.22;;;20.77;;
49978;SDS011;35869;50.990;6.962;2023-05-02T05:53:07;36.80;;;21.35;;
49978;SDS011;35869;50.990;6.962;2023-05-02T05:58:07;39.30;;;23.20;;
49978;SDS011;35869;50.990;6.962;2023-05-02T06:03:08;37.10;;;21.13;;
49978;SDS011;35869;50.990;6.962;2023-05-02T06:08:08;41.13;;;22.60;;
49978;SDS011;35869;50.990;6.962;2023-05-02T06:13:08;35.85;;;21.20;;
49978;SDS011;35869;50.990;6.962;2023-05-02T06:18:08;35.03;;;19.42;;
49978;SDS011;35869;50.990;6.962;2023-05-02T06:23:09;33.22;;;20.30;;
49978;SDS011;35869;50.990;6.962;2023-05-02T06:28:09;37.53;;;22.02;;
49978;SDS011;35869;50.990;6.962;2023-05-02T06:33:09;34.40;;;21.08;;
49978;SDS011;35869;50.990;6.962;2023-05-02T06:38:09;37.17;;;21.77;;
49978;SDS011;35869;50.990;6.962;2023-05-02T06:43:12;36.33;;;22.08;;
49978;SDS011;35869;50.990;6.962;2023-05-02T06:48:13;38.97;;;20.73;;
49978;SDS011;35869;50.990;6.962;2023-05-02T06:53:13;35.63;;;21.50;;
49978;SDS011;35869;50.990;6.962;2023-05-02T06:58:13;31.15;;;20.40;;
49978;SDS011;35869;50.990;6.962;2023-05-02T07:03:13;29.73;;;19.25;;
49978;SDS011;35869;50.990;6.962;2023-05-02T07:08:13;27.38;;;16.83;;
49978;SDS011;35869;50.990;6.962;2023-05-02T07:13:14;32.22;;;19.13;;
49978;SDS011;35869;50.990;6.962;2023-05-02T07:18:14;29.08;;;17.85;;
49978;SDS011;35869;50.990;6.962;2023-05-02T07:23:14;33.72;;;20.83;;
49978;SDS011;35869;50.990;6.962;2023-05-02T07:28:15;33.15;;;21.52;;
49978;SDS011;35869;50.990;6.962;2023-05-02T07:33:15;33.77;;;21.53;;
49978;SDS011;35869;50.990;6.962;2023-05-02T07:38:22;25.70;;;15.93;;
49978;SDS011;35869;50.990;6.962;2023-05-02T07:43:26;22.10;;;16.23;;
49978;SDS011;35869;50.990;6.962;2023-05-02T07:48:27;24.25;;;15.18;;
49978;SDS011;35869;50.990;6.962;2023-05-02T07:53:27;20.25;;;12.65;;
49978;SDS011;35869;50.990;6.962;2023-05-02T07:58:27;20.65;;;10.65;;
49978;SDS011;35869;50.990;6.962;2023-05-02T08:03:28;16.13;;;10.93;;
49978;SDS011;35869;50.990;6.962;2023-05-02T08:08:30;15.40;;;9.88;;
49978;SDS011;35869;50.990;6.962;2023-05-02T08:13:30;16.38;;;10.27;;
49978;SDS011;35869;50.990;6.962;2023-05-02T08:18:31;14.60;;;9.73;;
49978;SDS011;35869;50.990;6.962;2023-05-02T08:23:31;15.43;;;9.75;;
49978;SDS011;35869;50.990;6.962;2023-05-02T08:28:31;22.33;;;11.48;;
49978;SDS011;35869;50.990;6.962;2023-05-02T08:33:31;15.27;;;11.20;;
49978;SDS011;35869;50.990;6.962;2023-05-02T08:38:32;14.80;;;9.43;;
49978;SDS011;35869;50.990;6.962;2023-05-02T08:43:32;16.23;;;8.68;;
49978;SDS011;35869;50.990;6.962;2023-05-02T08:48:34;16.27;;;10.55;;
49978;SDS011;35869;50.990;6.962;2023-05-02T08:53:36;11.65;;;7.97;;
49978;SDS011;35869;50.990;6.962;2023-05-02T08:58:38;8.93;;;6.53;;
49978;SDS011;35869;50.990;6.962;2023-05-02T09:03:41;12.45;;;6.65;;
49978;SDS011;35869;50.990;6.962;2023-05-02T09:08:43;9.38;;;5.22;;
49978;SDS011;35869;50.990;6.962;2023-05-02T09:18:50;9.20;;;6.47;;
49978;SDS011;35869;50.990;6.962;2023-05-02T09:23:57;11.05;;;7.85;;
49978;SDS011;35869;50.990;6.962;2023-05-02T09:28:58;12.30;;;9.20;;
49978;SDS011;35869;50.990;6.962;2023-05-02T09:34:10;11.02;;;7.20;;
49978;SDS011;35869;50.990;6.962;2023-05-02T09:39:16;11.43;;;7.55;;
49978;SDS011;35869;50.990;6.962;2023-05-02T09:44:19;11.40;;;6.82;;
49978;SDS011;35869;50.990;6.962;2023-05-02T09:49:37;9.98;;;7.38;;
49978;SDS011;35869;50.990;6.962;2023-05-02T09:54:39;11.05;;;8.27;;
49978;SDS011;35869;50.990;6.962;2023-05-02T09:59:40;12.77;;;7.63;;
49978;SDS011;35869;50.990;6.962;2023-05-02T10:04:41;15.05;;;7.03;;
49978;SDS011;35869;50.990;6.962;2023-05-02T10:09:42;7.27;;;5.53;;
49978;SDS011;35869;50.990;6.962;2023-05-02T10:14:48;10.30;;;6.57;;
49978;SDS011;35869;50.990;6.962;2023-05-02T10:19:54;9.80;;;6.13;;
49978;SDS011;35869;50.990;6.962;2023-05-02T10:24:59;9.32;;;6.90;;
49978;SDS011;35869;50.990;6.962;2023-05-02T10:30:01;7.80;;;6.95;;
49978;SDS011;35869;50.990;6.962;2023-05-02T10:35:02;10.07;;;6.67;;
49978;SDS011;35869;50.990;6.962;2023-05-02T10:40:04;10.32;;;6.63;;
49978;SDS011;35869;50.990;6.962;2023-05-02T10:45:12;9.52;;;5.90;;
49978;SDS011;35869;50.990;6.962;2023-05-02T10:50:45;7.78;;;6.65;;
49978;SDS011;35869;50.990;6.962;2023-05-02T10:56:06;5.95;;;4.30;;
49978;SDS011;35869;50.990;6.962;2023-05-02T11:06:25;5.15;;;3.70;;
49978;SDS011;35869;50.990;6.962;2023-05-02T11:11:42;7.10;;;3.90;;
49978;SDS011;35869;50.990;6.962;2023-05-02T11:37:57;7.38;;;5.07;;
49978;SDS011;35869;50.990;6.962;2023-05-02T11:42:59;10.63;;;5.72;;
49978;SDS011;35869;50.990;6.962;2023-05-02T11:53:00;9.45;;;5.35;;
49978;SDS011;35869;50.990;6.962;2023-05-02T11:58:00;6.68;;;4.20;;
49978;SDS011;35869;50.990;6.962;2023-05-02T12:03:00;6.85;;;4.70;;
49978;SDS011;35869;50.990;6.962;2023-05-02T12:08:00;8.02;;;3.92;;
49978;SDS011;35869;50.990;6.962;2023-05-02T12:13:04;6.45;;;3.67;;
49978;SDS011;35869;50.990;6.962;2023-05-02T12:18:04;7.75;;;3.78;;
49978;SDS011;35869;50.990;6.962;2023-05-02T12:28:07;7.82;;;4.65;;
49978;SDS011;35869;50.990;6.962;2023-05-02T12:39:06;8.88;;;5.30;;
49978;SDS011;35869;50.990;6.962;2023-05-02T12:44:13;9.70;;;5.80;;
49978;SDS011;35869;50.990;6.962;2023-05-02T12:49:14;9.57;;;5.30;;
49978;SDS011;35869;50.990;6.962;2023-05-02T12:54:20;5.75;;;4.13;;
49978;SDS011;35869;50.990;6.962;2023-05-02T12:59:29;8.38;;;4.15;;
49978;SDS011;35869;50.990;6.962;2023-05-02T13:04:42;9.80;;;4.80;;
49978;SDS011;35869;50.990;6.962;2023-05-02T13:14:45;9.00;;;4.60;;
49978;SDS011;35869;50.990;6.962;2023-05-02T13:24:51;10.05;;;5.28;;
49978;SDS011;35869;50.990;6.962;2023-05-02T13:29:54;10.80;;;5.30;;
49978;SDS011;35869;50.990;6.962;2023-05-02T13:35:04;8.13;;;5.40;;
49978;SDS011;35869;50.990;6.962;2023-05-02T13:40:08;8.98;;;5.95;;
49978;SDS011;35869;50.990;6.962;2023-05-02T13:50:08;5.33;;;4.60;;
49978;SDS011;35869;50.990;6.962;2023-05-02T14:00:09;5.47;;;4.85;;
49978;SDS011;35869;50.990;6.962;2023-05-02T14:10:10;7.68;;;4.35;;
49978;SDS011;35869;50.990;6.962;2023-05-02T14:15:10;6.35;;;4.28;;
49978;SDS011;35869;50.990;6.962;2023-05-02T14:25:11;6.32;;;5.43;;
49978;SDS011;35869;50.990;6.962;2023-05-02T14:30:11;8.00;;;4.88;;
49978;SDS011;35869;50.990;6.962;2023-05-02T14:40:12;6.97;;;4.28;;
49978;SDS011;35869;50.990;6.962;2023-05-02T14:50:12;6.53;;;4.95;;
49978;SDS011;35869;50.990;6.962;2023-05-02T14:55:13;5.85;;;4.20;;
49978;SDS011;35869;50.990;6.962;2023-05-02T15:00:13;7.15;;;4.50;;
49978;SDS011;35869;50.990;6.962;2023-05-02T15:10:14;5.93;;;3.85;;
49978;SDS011;35869;50.990;6.962;2023-05-02T15:20:14;6.70;;;4.18;;
49978;SDS011;35869;50.990;6.962;2023-05-02T15:25:14;4.43;;;3.65;;
49978;SDS011;35869;50.990;6.962;2023-05-02T15:30:15;6.07;;;3.80;;
49978;SDS011;35869;50.990;6.962;2023-05-02T15:35:15;5.40;;;3.38;;
49978;SDS011;35869;50.990;6.962;2023-05-02T15:40:15;5.38;;;4.15;;
49978;SDS011;35869;50.990;6.962;2023-05-02T15:45:15;3.47;;;3.17;;
49978;SDS011;35869;50.990;6.962;2023-05-02T15:50:15;4.68;;;3.53;;
49978;SDS011;35869;50.990;6.962;2023-05-02T15:55:16;5.70;;;4.07;;
49978;SDS011;35869;50.990;6.962;2023-05-02T16:00:16;4.95;;;3.75;;
49978;SDS011;35869;50.990;6.962;2023-05-02T16:10:16;10.07;;;4.30;;
49978;SDS011;35869;50.990;6.962;2023-05-02T16:15:17;6.78;;;4.03;;
49978;SDS011;35869;50.990;6.962;2023-05-02T16:25:17;5.97;;;4.90;;
49978;SDS011;35869;50.990;6.962;2023-05-02T16:30:18;7.20;;;3.88;;
49978;SDS011;35869;50.990;6.962;2023-05-02T16:35:18;9.02;;;3.90;;
49978;SDS011;35869;50.990;6.962;2023-05-02T16:45:18;5.38;;;3.33;;
49978;SDS011;35869;50.990;6.962;2023-05-02T16:55:19;6.28;;;3.47;;
49978;SDS011;35869;50.990;6.962;2023-05-02T17:05:19;6.05;;;3.90;;
49978;SDS011;35869;50.990;6.962;2023-05-02T17:10:19;7.07;;;3.95;;
49978;SDS011;35869;50.990;6.962;2023-05-02T17:15:20;7.28;;;4.47;;
49978;SDS011;35869;50.990;6.962;2023-05-02T17:20:21;8.15;;;3.50;;
49978;SDS011;35869;50.990;6.962;2023-05-02T17:25:21;6.47;;;4.20;;
49978;SDS011;35869;50.990;6.962;2023-05-02T17:30:21;5.95;;;3.78;;
49978;SDS011;35869;50.990;6.962;2023-05-02T17:35:22;7.20;;;4.93;;
49978;SDS011;35869;50.990;6.962;2023-05-02T17:40:22;8.13;;;5.00;;
49978;SDS011;35869;50.990;6.962;2023-05-02T17:50:22;10.02;;;4.30;;
49978;SDS011;35869;50.990;6.962;2023-05-02T17:55:22;5.45;;;3.28;;
49978;SDS011;35869;50.990;6.962;2023-05-02T18:00:23;8.00;;;4.35;;
49978;SDS011;35869;50.990;6.962;2023-05-02T18:10:24;10.98;;;3.95;;
49978;SDS011;35869;50.990;6.962;2023-05-02T18:15:24;8.75;;;4.05;;
49978;SDS011;35869;50.990;6.962;2023-05-02T18:20:24;10.90;;;5.35;;
49978;SDS011;35869;50.990;6.962;2023-05-02T18:25:24;7.35;;;4.53;;
49978;SDS011;35869;50.990;6.962;2023-05-02T18:30:25;8.55;;;4.65;;
49978;SDS011;35869;50.990;6.962;2023-05-02T18:35:25;8.18;;;4.82;;
49978;SDS011;35869;50.990;6.962;2023-05-02T18:40:25;7.10;;;4.40;;
49978;SDS011;35869;50.990;6.962;2023-05-02T18:45:25;8.35;;;4.32;;
49978;SDS011;35869;50.990;6.962;2023-05-02T18:50:26;10.55;;;3.92;;
49978;SDS011;35869;50.990;6.962;2023-05-02T18:55:30;7.35;;;4.13;;
49978;SDS011;35869;50.990;6.962;2023-05-02T19:00:31;6.28;;;4.15;;
49978;SDS011;35869;50.990;6.962;2023-05-02T19:05:31;6.10;;;3.90;;
49978;SDS011;35869;50.990;6.962;2023-05-02T19:10:32;8.73;;;4.25;;
49978;SDS011;35869;50.990;6.962;2023-05-02T19:15:32;7.13;;;3.67;;
49978;SDS011;35869;50.990;6.962;2023-05-02T19:20:34;5.20;;;3.05;;
49978;SDS011;35869;50.990;6.962;2023-05-02T19:25:36;5.93;;;3.83;;
49978;SDS011;35869;50.990;6.962;2023-05-02T19:30:40;9.68;;;3.97;;
49978;SDS011;35869;50.990;6.962;2023-05-02T19:35:41;8.73;;;4.25;;
49978;SDS011;35869;50.990;6.962;2023-05-02T19:40:41;7.75;;;4.40;;
49978;SDS011;35869;50.990;6.962;2023-05-02T19:45:41;12.43;;;4.05;;
49978;SDS011;35869;50.990;6.962;2023-05-02T19:50:41;8.02;;;4.20;;
49978;SDS011;35869;50.990;6.962;2023-05-02T19:55:42;8.23;;;4.50;;
49978;SDS011;35869;50.990;6.962;2023-05-02T20:00:42;9.50;;;4.38;;
49978;SDS011;35869;50.990;6.962;2023-05-02T20:05:42;9.10;;;4.97;;
49978;SDS011;35869;50.990;6.962;2023-05-02T20:10:43;6.25;;;4.70;;
49978;SDS011;35869;50.990;6.962;2023-05-02T20:15:43;9.70;;;4.57;;
49978;SDS011;35869;50.990;6.962;2023-05-02T20:20:43;8.73;;;4.68;;
49978;SDS011;35869;50.990;6.962;2023-05-02T20:25:44;7.50;;;4.30;;
49978;SDS011;35869;50.990;6.962;2023-05-02T20:30:44;7.55;;;4.28;;
49978;SDS011;35869;50.990;6.962;2023-05-02T20:35:44;9.23;;;5.05;;
49978;SDS011;35869;50.990;6.962;2023-05-02T20:40:44;7.65;;;5.05;;
49978;SDS011;35869;50.990;6.962;2023-05-02T20:45:45;11.43;;;5.32;;
49978;SDS011;35869;50.990;6.962;2023-05-02T20:50:51;10.73;;;5.10;;
49978;SDS011;35869;50.990;6.962;2023-05-02T20:55:52;9.25;;;4.82;;
49978;SDS011;35869;50.990;6.962;2023-05-02T21:00:53;7.55;;;4.70;;
49978;SDS011;35869;50.990;6.962;2023-05-02T21:05:53;10.60;;;5.32;;
49978;SDS011;35869;50.990;6.962;2023-05-02T21:10:54;11.05;;;4.95;;
49978;SDS011;35869;50.990;6.962;2023-05-02T21:15:54;11.20;;;5.80;;
49978;SDS011;35869;50.990;6.962;2023-05-02T21:20:55;9.07;;;5.35;;
49978;SDS011;35869;50.990;6.962;2023-05-02T21:25:55;9.18;;;5.47;;
49978;SDS011;35869;50.990;6.962;2023-05-02T21:30:55;11.15;;;6.60;;
49978;SDS011;35869;50.990;6.962;2023-05-02T21:35:56;8.77;;;5.38;;
49978;SDS011;35869;50.990;6.962;2023-05-02T21:46:00;9.63;;;5.28;;
49978;SDS011;35869;50.990;6.962;2023-05-02T21:51:04;11.77;;;4.72;;
49978;SDS011;35869;50.990;6.962;2023-05-02T21:56:08;8.45;;;4.43;;
49978;SDS011;35869;50.990;6.962;2023-05-02T22:01:09;11.10;;;5.53;;
49978;SDS011;35869;50.990;6.962;2023-05-02T22:06:09;12.68;;;4.95;;
49978;SDS011;35869;50.990;6.962;2023-05-02T22:11:09;7.80;;;4.55;;
49978;SDS011;35869;50.990;6.962;2023-05-02T22:16:10;10.30;;;5.50;;
49978;SDS011;35869;50.990;6.962;2023-05-02T22:21:10;9.17;;;4.93;;
49978;SDS011;35869;50.990;6.962;2023-05-02T22:26:10;8.30;;;5.03;;
49978;SDS011;35869;50.990;6.962;2023-05-02T22:31:11;9.20;;;4.65;;
49978;SDS011;35869;50.990;6.962;2023-05-02T22:36:11;7.75;;;4.95;;
49978;SDS011;35869;50.990;6.962;2023-05-02T22:41:11;14.32;;;5.40;;
49978;SDS011;35869;50.990;6.962;2023-05-02T22:46:11;6.20;;;4.70;;
49978;SDS011;35869;50.990;6.962;2023-05-02T22:51:11;6.38;;;5.10;;
49978;SDS011;35869;50.990;6.962;2023-05-02T22:56:12;6.90;;;4.55;;
49978;SDS011;35869;50.990;6.962;2023-05-02T23:01:12;13.18;;;5.30;;
49978;SDS011;35869;50.990;6.962;2023-05-02T23:06:12;12.63;;;5.13;;
49978;SDS011;35869;50.990;6.962;2023-05-02T23:11:12;8.65;;;4.32;;
49978;SDS011;35869;50.990;6.962;2023-05-02T23:16:12;7.10;;;4.55;;
49978;SDS011;35869;50.990;6.962;2023-05-02T23:21:13;7.75;;;4.45;;
49978;SDS011;35869;50.990;6.962;2023-05-02T23:31:14;9.90;;;4.60;;
49978;SDS011;35869;50.990;6.962;2023-05-02T23:36:14;12.20;;;5.22;;
49978;SDS011;35869;50.990;6.962;2023-05-02T23:41:14;6.90;;;4.82;;
49978;SDS011;35869;50.990;6.962;2023-05-02T23:46:15;11.93;;;5.45;;
49978;SDS011;35869;50.990;6.962;2023-05-02T23:51:15;8.18;;;5.47;;
49978;SDS011;35869;50.990;6.962;2023-05-02T23:56:15;10.05;;;5.30;;
